createdAt,value
2023-05-16T00:01:47.607Z,100121.86
2023-05-16T00:04:14.402Z,100119.84
2023-05-16T00:06:41.446Z,100115.61
2023-05-16T00:09:07.971Z,100115.34
2023-05-16T00:11:35.301Z,100118.39
2023-05-16T00:14:02.149Z,100118.59
2023-05-16T00:16:29.486Z,100124.60
2023-05-16T00:18:57.166Z,100122.80
2023-05-16T00:21:24.451Z,100118.30
2023-05-16T00:23:52.182Z,100120.99
2023-05-16T00:26:18.921Z,100120.03
2023-05-16T00:28:45.578Z,100118.93
2023-05-16T00:31:12.290Z,100121.09
2023-05-16T00:33:39.286Z,100124.61
2023-05-16T00:36:06.929Z,100131.92
2023-05-16T00:38:34.260Z,100130.20
2023-05-16T00:41:01.050Z,100135.84
2023-05-16T00:43:29.396Z,100129.23
2023-05-16T00:45:57.209Z,100128.02
2023-05-16T00:48:23.965Z,100132.04
2023-05-16T00:50:52.619Z,100134.16
2023-05-16T00:53:20.289Z,100133.86
2023-05-16T00:55:46.906Z,100137.67
2023-05-16T00:58:13.630Z,100139.98
2023-05-16T01:00:40.689Z,100137.13
2023-05-16T01:03:07.797Z,100135.84
2023-05-16T01:05:34.609Z,100127.22
2023-05-16T01:08:01.432Z,100127.34
2023-05-16T01:10:36.268Z,100127.20
2023-05-16T01:13:12.140Z,100129.88
2023-05-16T01:15:44.786Z,100128.94
2023-05-16T01:18:33.990Z,100121.83
2023-05-16T01:21:04.368Z,100123.86
2023-05-16T01:23:50.830Z,100125.48
2023-05-16T01:26:27.449Z,100118.16
2023-05-16T01:28:54.339Z,100118.52
2023-05-16T01:31:21.461Z,100119.46
2023-05-16T01:33:48.288Z,100122.56
2023-05-16T01:36:25.728Z,100119.34
2023-05-16T01:39:18.609Z,100119.48
2023-05-16T01:41:48.726Z,100119.86
2023-05-16T01:44:24.839Z,100118.66
2023-05-16T01:46:55.745Z,100116.02
2023-05-16T01:49:45.166Z,100119.94
2023-05-16T01:52:19.438Z,100115.72
2023-05-16T01:54:47.318Z,100117.81
2023-05-16T01:57:13.839Z,100119.02
2023-05-16T01:59:40.883Z,100116.77
2023-05-16T02:02:08.343Z,100114.54
2023-05-16T02:04:35.204Z,100115.21
2023-05-16T02:07:03.956Z,100112.65
2023-05-16T02:09:30.932Z,100106.65
2023-05-16T02:11:57.492Z,100104.14
2023-05-16T02:14:25.328Z,100103.23
2023-05-16T02:16:51.993Z,100101.92
2023-05-16T02:19:18.993Z,100102.27
2023-05-16T02:21:45.802Z,100101.23
2023-05-16T02:24:12.445Z,100102.32
2023-05-16T02:26:39.057Z,100099.17
2023-05-16T02:29:05.681Z,100096.20
2023-05-16T02:31:34.078Z,100097.15
2023-05-16T02:34:01.510Z,100095.27
2023-05-16T02:36:28.272Z,100098.64
2023-05-16T02:38:55.086Z,100099.48
2023-05-16T02:41:22.646Z,100094.86
2023-05-16T02:43:49.283Z,100093.19
2023-05-16T02:46:23.413Z,100096.54
2023-05-16T02:48:51.181Z,100102.10
2023-05-16T02:51:19.976Z,100096.86
2023-05-16T02:53:47.009Z,100102.35
2023-05-16T02:56:13.656Z,100103.29
2023-05-16T02:58:41.404Z,100104.91
2023-05-16T03:01:08.497Z,100106.32
2023-05-16T03:03:36.453Z,100104.90
2023-05-16T03:06:05.543Z,100110.46
2023-05-16T03:08:33.560Z,100107.36
2023-05-16T03:11:00.635Z,100103.90
2023-05-16T03:13:29.426Z,100100.48
2023-05-16T03:15:58.754Z,100098.96
2023-05-16T03:18:25.583Z,100099.84
2023-05-16T03:20:55.935Z,100105.72
2023-05-16T03:23:23.776Z,100101.20
2023-05-16T03:25:50.819Z,100103.61
2023-05-16T03:28:20.690Z,100103.77
2023-05-16T03:30:47.298Z,100102.48
2023-05-16T03:33:14.678Z,100102.30
2023-05-16T03:35:41.667Z,100101.23
2023-05-16T03:38:08.329Z,100099.05
2023-05-16T03:40:35.199Z,100099.27
2023-05-16T03:43:01.792Z,100098.25
2023-05-16T03:45:31.689Z,100095.95
2023-05-16T03:47:59.645Z,100099.19
2023-05-16T03:50:27.190Z,100099.09
2023-05-16T03:52:56.081Z,100103.00
2023-05-16T03:55:22.662Z,100106.29
2023-05-16T03:57:50.621Z,100107.73
2023-05-16T04:00:17.355Z,100107.21
2023-05-16T04:02:44.427Z,100107.97
2023-05-16T04:05:12.086Z,100109.62
2023-05-16T04:07:39.621Z,100113.48
2023-05-16T04:10:06.651Z,100117.66
2023-05-16T04:12:33.453Z,100122.41
2023-05-16T04:15:00.382Z,100127.34
2023-05-16T04:17:27.032Z,100125.66
2023-05-16T04:21:16.356Z,100140.80
2023-05-16T04:23:43.104Z,100134.90
2023-05-16T04:26:09.851Z,100136.13
2023-05-16T04:28:36.663Z,100135.97
2023-05-16T04:31:03.518Z,100134.38
2023-05-16T04:33:30.503Z,100140.27
2023-05-16T04:35:58.619Z,100140.77
2023-05-16T04:38:25.475Z,100148.86
2023-05-16T04:40:52.757Z,100150.74
2023-05-16T04:43:20.004Z,100154.75
2023-05-16T04:45:47.241Z,100151.73
2023-05-16T04:48:14.029Z,100153.33
2023-05-16T04:50:41.372Z,100156.61
2023-05-16T04:53:08.114Z,100155.48
2023-05-16T04:55:34.810Z,100154.58
2023-05-16T04:58:01.512Z,100154.30
2023-05-16T05:00:28.433Z,100155.38
2023-05-16T05:02:55.425Z,100150.51
2023-05-16T05:05:22.211Z,100150.09
2023-05-16T05:07:51.186Z,100152.46
2023-05-16T05:10:19.486Z,100148.91
2023-05-16T05:12:47.842Z,100149.08
2023-05-16T05:15:14.844Z,100158.90
2023-05-16T05:17:41.747Z,100157.83
2023-05-16T05:20:10.574Z,100156.72
2023-05-16T05:22:37.366Z,100158.27
2023-05-16T05:25:05.587Z,100157.58
2023-05-16T05:27:37.398Z,100160.55
2023-05-16T05:30:05.067Z,100160.40
2023-05-16T05:32:32.209Z,100166.10
2023-05-16T05:34:59.167Z,100168.92
2023-05-16T05:37:26.821Z,100164.93
2023-05-16T05:39:53.594Z,100163.00
2023-05-16T05:42:20.425Z,100160.02
2023-05-16T05:44:47.195Z,100162.90
2023-05-16T05:47:16.872Z,100163.36
2023-05-16T05:49:43.642Z,100166.83
2023-05-16T05:52:10.808Z,100166.95
2023-05-16T05:54:37.558Z,100165.42
2023-05-16T05:57:04.633Z,100169.68
2023-05-16T05:59:31.431Z,100177.68
2023-05-16T06:01:58.924Z,100181.32
2023-05-16T06:04:25.907Z,100185.23
2023-05-16T06:06:52.687Z,100188.26
2023-05-16T06:09:21.230Z,100193.52
2023-05-16T06:11:47.954Z,100191.91
2023-05-16T06:14:14.759Z,100196.83
2023-05-16T06:16:41.755Z,100196.13
2023-05-16T06:19:09.476Z,100197.60
2023-05-16T06:21:36.651Z,100194.12
2023-05-16T06:24:04.414Z,100196.55
2023-05-16T06:26:32.386Z,100199.95
2023-05-16T06:28:59.325Z,100195.65
2023-05-16T06:31:26.695Z,100201.92
2023-05-16T06:33:53.531Z,100203.42
2023-05-16T06:36:20.451Z,100202.12
2023-05-16T06:38:47.207Z,100205.17
2023-05-16T06:41:14.179Z,100198.73
2023-05-16T06:43:41.590Z,100195.88
2023-05-16T06:46:08.417Z,100190.80
2023-05-16T06:48:35.185Z,100189.62
2023-05-16T06:51:02.088Z,100184.14
2023-05-16T06:53:29.597Z,100187.77
2023-05-16T06:55:57.695Z,100183.13
2023-05-16T06:58:24.446Z,100179.94
2023-05-16T07:00:51.416Z,100177.28
2023-05-16T07:03:18.675Z,100174.00
2023-05-16T07:05:45.791Z,100175.96
2023-05-16T07:08:12.566Z,100168.71
2023-05-16T07:10:39.849Z,100165.19
2023-05-16T07:13:07.056Z,100167.11
2023-05-16T07:15:34.054Z,100169.80
2023-05-16T07:18:01.001Z,100167.77
2023-05-16T07:20:27.775Z,100167.65
2023-05-16T07:22:57.552Z,100164.50
2023-05-16T07:25:28.332Z,100161.94
2023-05-16T07:27:55.863Z,100156.16
2023-05-16T07:30:23.078Z,100156.67
2023-05-16T07:32:50.061Z,100154.59
2023-05-16T07:35:17.006Z,100161.84
2023-05-16T07:37:43.989Z,100161.56
2023-05-16T07:40:11.519Z,100165.70
2023-05-16T07:42:38.811Z,100160.88
2023-05-16T07:45:07.380Z,100164.10
2023-05-16T07:47:34.988Z,100165.66
2023-05-16T07:50:02.070Z,100172.90
2023-05-16T07:52:28.926Z,100173.30
2023-05-16T07:54:56.100Z,100172.77
2023-05-16T07:57:24.898Z,100183.13
2023-05-16T07:59:52.734Z,100188.36
2023-05-16T08:02:19.774Z,100189.86
2023-05-16T08:04:47.006Z,100190.04
2023-05-16T08:07:14.058Z,100188.63
2023-05-16T08:09:40.876Z,100192.48
2023-05-16T08:12:08.473Z,100194.85
2023-05-16T08:14:37.153Z,100191.75
2023-05-16T08:17:04.709Z,100191.11
2023-05-16T08:19:33.011Z,100193.25
2023-05-16T08:22:00.003Z,100192.04
2023-05-16T08:24:26.815Z,100187.66
2023-05-16T08:26:53.798Z,100185.76
2023-05-16T08:29:20.864Z,100186.40
2023-05-16T08:31:48.392Z,100188.05
2023-05-16T08:34:15.362Z,100186.23
2023-05-16T08:36:42.241Z,100195.29
2023-05-16T08:39:11.620Z,100193.36
2023-05-16T08:41:39.066Z,100198.42
2023-05-16T08:44:06.287Z,100200.85
2023-05-16T08:46:33.242Z,100213.58
2023-05-16T08:49:01.257Z,100219.34
2023-05-16T08:51:28.973Z,100228.23
2023-05-16T08:54:06.997Z,100233.88
2023-05-16T08:56:34.698Z,100231.17
2023-05-16T08:59:02.604Z,100222.89
2023-05-16T09:01:30.473Z,100221.31
2023-05-16T09:03:57.414Z,100212.10
2023-05-16T09:06:25.045Z,100200.89
2023-05-16T09:08:54.277Z,100185.95
2023-05-16T09:11:21.825Z,100181.11
2023-05-16T09:13:49.215Z,100176.89
2023-05-16T09:16:17.810Z,100174.60
2023-05-16T09:18:57.071Z,100160.26
2023-05-16T09:21:30.198Z,100163.30
2023-05-16T09:23:57.764Z,100162.14
2023-05-16T09:26:24.534Z,100164.00
2023-05-16T09:28:54.812Z,100162.58
2023-05-16T09:31:36.895Z,100160.31
2023-05-16T09:34:07.841Z,100160.48
2023-05-16T09:36:34.689Z,100159.45
2023-05-16T09:39:01.902Z,100159.89
2023-05-16T09:41:28.757Z,100158.80
2023-05-16T09:43:56.890Z,100161.70
2023-05-16T09:46:26.420Z,100159.02
2023-05-16T09:48:53.238Z,100158.67
2023-05-16T09:51:22.349Z,100160.21
2023-05-16T09:53:49.163Z,100159.57
2023-05-16T09:56:16.441Z,100160.50
2023-05-16T09:58:44.195Z,100162.75
2023-05-16T10:01:11.597Z,100168.52
2023-05-16T10:03:40.164Z,100180.71
2023-05-16T10:06:08.322Z,100179.50
2023-05-16T10:08:36.693Z,100179.98
2023-05-16T10:11:04.858Z,100181.71
2023-05-16T10:13:33.866Z,100186.73
2023-05-16T10:16:02.198Z,100175.59
2023-05-16T10:18:30.241Z,100173.95
2023-05-16T10:20:58.230Z,100176.70
2023-05-16T10:23:25.696Z,100175.66
2023-05-16T10:25:52.551Z,100178.48
2023-05-16T10:28:19.334Z,100169.82
2023-05-16T10:30:46.800Z,100171.42
2023-05-16T10:33:15.545Z,100164.58
2023-05-16T10:35:43.657Z,100165.61
2023-05-16T10:38:12.243Z,100163.27
2023-05-16T10:40:39.765Z,100165.41
2023-05-16T10:43:11.730Z,100160.80
2023-05-16T10:45:44.454Z,100167.33
2023-05-16T10:48:12.463Z,100166.86
2023-05-16T10:50:46.179Z,100161.38
2023-05-16T10:53:20.085Z,100151.59
2023-05-16T10:55:59.495Z,100154.91
2023-05-16T10:58:38.690Z,100160.73
2023-05-16T11:01:19.131Z,100161.60
2023-05-16T11:04:04.764Z,100161.40
2023-05-16T11:06:34.659Z,100167.52
2023-05-16T11:09:10.052Z,100169.23
2023-05-16T11:11:49.358Z,100171.66
2023-05-16T11:14:23.373Z,100163.23
2023-05-16T11:16:51.913Z,100165.27
2023-05-16T11:19:40.597Z,100170.52
2023-05-16T11:22:08.641Z,100165.73
2023-05-16T11:24:36.565Z,100164.91
2023-05-16T11:27:06.633Z,100167.33
2023-05-16T11:29:34.727Z,100161.75
2023-05-16T11:32:03.420Z,100158.14
2023-05-16T11:34:31.037Z,100157.23
2023-05-16T11:36:58.476Z,100155.55
2023-05-16T11:39:25.480Z,100163.33
2023-05-16T11:41:53.647Z,100164.19
2023-05-16T11:44:20.378Z,100159.96
2023-05-16T11:46:47.813Z,100156.80
2023-05-16T11:49:14.719Z,100162.91
2023-05-16T11:51:43.383Z,100163.09
2023-05-16T11:54:10.287Z,100169.77
2023-05-16T11:56:37.240Z,100170.41
2023-05-16T11:59:04.622Z,100168.73
2023-05-16T12:01:38.983Z,100165.59
2023-05-16T12:04:10.488Z,100164.29
2023-05-16T12:06:37.705Z,100162.33
2023-05-16T12:09:10.595Z,100160.41
2023-05-16T12:11:38.583Z,100157.45
2023-05-16T12:14:06.670Z,100150.90
2023-05-16T12:16:33.826Z,100153.25
2023-05-16T12:19:02.142Z,100158.39
2023-05-16T12:21:29.117Z,100159.85
2023-05-16T12:23:57.453Z,100157.10
2023-05-16T12:26:32.223Z,100166.66
2023-05-16T12:29:04.295Z,100162.79
2023-05-16T12:31:32.697Z,100162.73
2023-05-16T12:34:02.020Z,100160.73
2023-05-16T12:36:32.303Z,100163.27
2023-05-16T12:39:04.118Z,100163.50
2023-05-16T12:41:31.447Z,100165.01
2023-05-16T12:44:29.779Z,100165.31
2023-05-16T12:46:58.239Z,100166.02
2023-05-16T12:49:25.023Z,100161.82
2023-05-16T12:51:53.023Z,100158.41
2023-05-16T12:54:20.610Z,100148.27
2023-05-16T12:56:47.724Z,100147.37
2023-05-16T12:59:15.114Z,100141.45
2023-05-16T13:01:42.263Z,100143.34
2023-05-16T13:04:10.655Z,100139.19
2023-05-16T13:06:56.480Z,100138.96
2023-05-16T13:09:29.942Z,100136.71
2023-05-16T13:11:58.066Z,100141.80
2023-05-16T13:14:25.143Z,100139.72
2023-05-16T13:16:51.942Z,100137.88
2023-05-16T13:19:18.853Z,100143.20
2023-05-16T13:21:45.966Z,100150.58
2023-05-16T13:24:12.740Z,100155.27
2023-05-16T13:26:39.603Z,100154.48
2023-05-16T13:29:09.773Z,100154.35
2023-05-16T13:31:36.715Z,100151.45
2023-05-16T13:34:03.483Z,100148.57
2023-05-16T13:36:41.643Z,100146.20
2023-05-16T13:39:18.644Z,100150.11
2023-05-16T13:41:47.294Z,100156.80
2023-05-16T13:44:15.535Z,100157.43
2023-05-16T13:46:42.466Z,100153.35
2023-05-16T13:49:09.224Z,100152.35
2023-05-16T13:51:36.186Z,100149.52
2023-05-16T13:54:03.199Z,100149.91
2023-05-16T13:56:30.136Z,100148.38
2023-05-16T13:59:03.690Z,100143.52
2023-05-16T14:01:31.641Z,100145.28
2023-05-16T14:03:58.683Z,100144.11
2023-05-16T14:06:26.533Z,100143.48
2023-05-16T14:08:53.366Z,100144.28
2023-05-16T14:11:28.486Z,100140.70
2023-05-16T14:13:56.845Z,100139.96
2023-05-16T14:16:23.708Z,100134.38
2023-05-16T14:18:50.596Z,100140.54
2023-05-16T14:21:17.761Z,100143.53
2023-05-16T14:23:44.571Z,100141.57
2023-05-16T14:26:11.514Z,100137.30
2023-05-16T14:28:38.378Z,100142.73
2023-05-16T14:31:05.452Z,100150.04
2023-05-16T14:33:33.340Z,100152.57
2023-05-16T14:36:01.668Z,100146.21
2023-05-16T14:38:28.747Z,100142.75
2023-05-16T14:40:55.592Z,100137.38
2023-05-16T14:43:22.426Z,100141.80
2023-05-16T14:45:49.488Z,100140.66
2023-05-16T14:48:17.428Z,100144.86
2023-05-16T14:50:44.396Z,100140.01
2023-05-16T14:53:11.220Z,100140.95
2023-05-16T14:55:38.394Z,100141.22
2023-05-16T14:58:05.830Z,100137.08
2023-05-16T15:00:32.659Z,100138.11
2023-05-16T15:02:59.672Z,100139.23
2023-05-16T15:05:26.996Z,100146.73
2023-05-16T15:07:53.942Z,100141.18
2023-05-16T15:10:20.869Z,100137.06
2023-05-16T15:12:47.834Z,100138.96
2023-05-16T15:15:16.783Z,100134.06
2023-05-16T15:17:43.803Z,100133.64
2023-05-16T15:20:11.373Z,100137.11
2023-05-16T15:22:41.718Z,100139.92
2023-05-16T15:25:09.167Z,100142.33
2023-05-16T15:27:36.268Z,100139.27
2023-05-16T15:30:03.321Z,100131.63
2023-05-16T15:32:30.608Z,100134.41
2023-05-16T15:34:57.558Z,100133.86
2023-05-16T15:37:24.610Z,100134.24
2023-05-16T15:39:51.632Z,100136.55
2023-05-16T15:42:20.229Z,100134.08
2023-05-16T15:44:47.726Z,100135.67
2023-05-16T15:47:14.879Z,100136.27
2023-05-16T15:49:41.730Z,100136.73
2023-05-16T15:52:08.951Z,100136.48
2023-05-16T15:54:36.322Z,100140.16
2023-05-16T15:57:03.746Z,100137.48
2023-05-16T15:59:30.919Z,100138.05
2023-05-16T16:01:57.870Z,100137.98
2023-05-16T16:04:24.651Z,100133.77
2023-05-16T16:06:51.571Z,100132.50
2023-05-16T16:09:24.773Z,100129.18
2023-05-16T16:11:56.473Z,100129.92
2023-05-16T16:14:24.843Z,100129.52
2023-05-16T16:16:51.907Z,100125.15
2023-05-16T16:19:18.947Z,100129.16
2023-05-16T16:21:46.446Z,100135.05
2023-05-16T16:24:13.675Z,100136.39
2023-05-16T16:26:43.676Z,100140.45
2023-05-16T16:29:10.446Z,100139.77
2023-05-16T16:31:37.829Z,100133.85
2023-05-16T16:34:04.819Z,100130.72
2023-05-16T16:38:15.766Z,100134.98
2023-05-16T16:40:42.341Z,100130.39
2023-05-16T16:43:09.323Z,100135.20
2023-05-16T16:45:36.015Z,100131.05
2023-05-16T16:48:02.693Z,100135.09
2023-05-16T16:50:32.037Z,100135.93
2023-05-16T16:53:01.194Z,100138.33
2023-05-16T16:55:28.084Z,100141.53
2023-05-16T16:57:55.588Z,100138.44
2023-05-16T17:00:22.257Z,100138.50
2023-05-16T17:02:49.046Z,100138.99
2023-05-16T17:05:16.308Z,100133.77
2023-05-16T17:07:43.726Z,100135.17
2023-05-16T17:10:10.872Z,100136.64
2023-05-16T17:12:46.183Z,100134.14
2023-05-16T17:15:12.821Z,100135.15
2023-05-16T17:17:39.465Z,100133.77
2023-05-16T17:20:07.243Z,100133.88
2023-05-16T17:22:34.028Z,100129.15
2023-05-16T17:25:00.615Z,100131.26
2023-05-16T17:27:27.390Z,100135.48
2023-05-16T17:29:54.056Z,100136.00
2023-05-16T17:32:20.871Z,100134.46
2023-05-16T17:34:47.806Z,100131.91
2023-05-16T17:37:14.567Z,100134.18
2023-05-16T17:39:44.385Z,100132.10
2023-05-16T17:42:11.180Z,100130.77
2023-05-16T17:44:40.443Z,100133.06
2023-05-16T17:47:07.160Z,100135.31
2023-05-16T17:49:34.328Z,100140.74
2023-05-16T17:52:00.938Z,100140.73
2023-05-16T17:54:31.319Z,100144.17
2023-05-16T17:57:00.743Z,100146.64
2023-05-16T17:59:27.747Z,100142.35
2023-05-16T18:01:58.038Z,100146.58
2023-05-16T18:04:26.208Z,100149.09
2023-05-16T18:06:53.955Z,100147.68
2023-05-16T18:09:21.213Z,100146.91
2023-05-16T18:11:48.410Z,100149.02
2023-05-16T18:14:15.019Z,100147.83
2023-05-16T18:16:41.825Z,100149.34
2023-05-16T18:19:10.112Z,100149.89
2023-05-16T18:21:37.653Z,100147.72
2023-05-16T18:24:07.572Z,100145.02
2023-05-16T18:26:34.441Z,100152.66
2023-05-16T18:29:01.973Z,100153.80
2023-05-16T18:31:30.153Z,100151.82
2023-05-16T18:33:57.132Z,100151.02
2023-05-16T18:36:23.742Z,100150.17
2023-05-16T18:38:52.088Z,100153.94
2023-05-16T18:41:18.699Z,100153.09
2023-05-16T18:43:45.291Z,100156.05
2023-05-16T18:46:12.043Z,100156.13
2023-05-16T18:48:38.779Z,100162.00
2023-05-16T18:51:05.603Z,100163.19
2023-05-16T18:53:32.657Z,100163.16
2023-05-16T18:56:02.173Z,100163.64
2023-05-16T18:58:29.406Z,100165.98
2023-05-16T19:00:56.049Z,100165.52
2023-05-16T19:03:23.512Z,100163.33
2023-05-16T19:05:55.039Z,100168.38
2023-05-16T19:08:24.209Z,100161.41
2023-05-16T19:10:53.680Z,100163.37
2023-05-16T19:13:21.841Z,100162.88
2023-05-16T19:15:48.589Z,100165.05
2023-05-16T19:18:17.599Z,100162.36
2023-05-16T19:20:45.640Z,100159.73
2023-05-16T19:23:13.612Z,100160.45
2023-05-16T19:25:49.516Z,100161.93
2023-05-16T19:28:16.646Z,100160.23
2023-05-16T19:30:44.700Z,100160.41
2023-05-16T19:33:15.062Z,100158.60
2023-05-16T19:35:42.330Z,100158.79
2023-05-16T19:38:10.673Z,100161.94
2023-05-16T19:40:37.266Z,100161.02
2023-05-16T19:43:03.875Z,100160.22
2023-05-16T19:45:32.746Z,100162.33
2023-05-16T19:47:59.440Z,100164.36
2023-05-16T19:50:26.235Z,100165.69
2023-05-16T19:52:52.921Z,100164.42
2023-05-16T19:55:19.982Z,100161.71
2023-05-16T19:57:46.663Z,100157.23
2023-05-16T20:00:14.148Z,100159.16
2023-05-16T20:02:42.403Z,100159.80
2023-05-16T20:05:11.131Z,100158.33
2023-05-16T20:07:39.711Z,100159.70
2023-05-16T20:10:07.940Z,100158.63
2023-05-16T20:12:35.180Z,100155.02
2023-05-16T20:15:04.468Z,100151.80
2023-05-16T20:17:32.037Z,100151.80
2023-05-16T20:19:58.993Z,100154.19
2023-05-16T20:22:27.217Z,100156.77
2023-05-16T20:24:53.756Z,100159.18
2023-05-16T20:27:21.868Z,100160.05
2023-05-16T20:29:48.895Z,100153.97
2023-05-16T20:32:16.261Z,100155.98
2023-05-16T20:34:44.884Z,100155.36
2023-05-16T20:37:12.942Z,100152.89
2023-05-16T20:39:40.059Z,100152.40
2023-05-16T20:42:10.490Z,100151.05
2023-05-16T20:44:38.226Z,100147.98
2023-05-16T20:47:05.589Z,100145.56
2023-05-16T20:49:35.226Z,100141.94
2023-05-16T20:52:01.817Z,100146.05
2023-05-16T20:54:28.583Z,100142.87
2023-05-16T20:56:55.225Z,100138.51
2023-05-16T20:59:21.904Z,100143.20
2023-05-16T21:01:48.468Z,100141.20
2023-05-16T21:04:15.187Z,100141.93
2023-05-16T21:06:41.788Z,100142.67
2023-05-16T21:09:08.346Z,100139.45
2023-05-16T21:11:35.705Z,100141.92
2023-05-16T21:14:02.460Z,100142.08
2023-05-16T21:16:30.454Z,100141.24
2023-05-16T21:18:57.819Z,100140.85
2023-05-16T21:21:24.797Z,100136.66
2023-05-16T21:23:51.649Z,100138.27
2023-05-16T21:26:18.226Z,100139.23
2023-05-16T21:28:54.536Z,100137.86
2023-05-16T21:31:22.219Z,100133.84
2023-05-16T21:33:51.292Z,100135.64
2023-05-16T21:36:18.775Z,100133.55
2023-05-16T21:38:45.354Z,100134.88
2023-05-16T21:41:12.611Z,100132.38
2023-05-16T21:43:39.709Z,100140.06
2023-05-16T21:46:06.745Z,100133.11
2023-05-16T21:48:34.402Z,100134.00
2023-05-16T21:51:01.268Z,100136.15
2023-05-16T21:53:28.233Z,100132.11
2023-05-16T21:55:57.628Z,100130.91
2023-05-16T21:58:24.717Z,100129.73
2023-05-16T22:00:51.449Z,100131.36
2023-05-16T22:03:20.247Z,100132.65
2023-05-16T22:05:47.247Z,100132.16
2023-05-16T22:08:14.503Z,100130.59
2023-05-16T22:10:41.067Z,100131.52
2023-05-16T22:13:08.023Z,100133.13
2023-05-16T22:15:34.770Z,100133.66
2023-05-16T22:18:01.646Z,100137.18
2023-05-16T22:20:29.000Z,100134.42
2023-05-16T22:22:55.794Z,100134.13
2023-05-16T22:25:22.708Z,100138.55
2023-05-16T22:27:49.264Z,100140.70
2023-05-16T22:30:16.609Z,100141.73
2023-05-16T22:32:45.056Z,100139.73
2023-05-16T22:35:13.890Z,100138.62
2023-05-16T22:37:41.365Z,100146.17
2023-05-16T22:40:08.607Z,100143.25
2023-05-16T22:42:35.595Z,100146.91
2023-05-16T22:45:03.250Z,100143.06
2023-05-16T22:47:30.585Z,100141.65
2023-05-16T22:49:57.311Z,100142.39
2023-05-16T22:52:23.809Z,100143.30
2023-05-16T22:54:51.172Z,100141.05
2023-05-16T22:57:17.915Z,100143.66
2023-05-16T22:59:44.494Z,100147.38
2023-05-16T23:02:11.359Z,100144.13
2023-05-16T23:04:38.137Z,100144.79
2023-05-16T23:07:04.951Z,100141.87
2023-05-16T23:09:31.916Z,100150.78
2023-05-16T23:11:58.495Z,100149.61
2023-05-16T23:14:25.637Z,100149.14
2023-05-16T23:16:52.635Z,100148.45
2023-05-16T23:19:19.339Z,100152.58
2023-05-16T23:21:46.139Z,100152.63
2023-05-16T23:24:12.867Z,100153.98
2023-05-16T23:26:39.432Z,100151.13
2023-05-16T23:29:06.644Z,100149.88
2023-05-16T23:31:33.897Z,100152.83
2023-05-16T23:34:00.768Z,100151.79
2023-05-16T23:36:27.840Z,100156.38
2023-05-16T23:38:54.363Z,100156.14
2023-05-16T23:41:21.028Z,100158.55
2023-05-16T23:43:47.913Z,100157.64
2023-05-16T23:46:14.701Z,100159.50
2023-05-16T23:48:41.554Z,100159.69
2023-05-16T23:51:08.304Z,100158.60
2023-05-16T23:53:35.277Z,100158.67
2023-05-16T23:56:01.939Z,100159.27
2023-05-16T23:58:29.293Z,100155.91
